Lanark, United Kingdom
Current Conditions -  °F | °C
As of 12:20 AM on Friday 28 Nov 2014 (Local Time) from EGPH Reporting Station
Broken Clouds Broken Clouds  
Wind Chill:   Ceiling: 2700
Heat Index:   Visibility: 5mi
Dew Point:   Wind: 5mph
Humidity: 100%   Direction: 70°ENE
Pressure: 29.65"   Gusts: NA
Location:  55.67°N, 3.78°W
Report Text: EGPH 280020Z 07004KT 8000 BKN027 BKN040 08/08 Q1004
Loading
Personal Weather Stations






























Interactive Weather Map New forecast layout! Learn more

10-Day Weather Forecast

Advertisements
Track Severe Weather on mobile